Time;durP1;ratioP1;P1;durP2;ratioP2;P2;SDS_P1;SDS_P2;PMS_P1;PMS_P2;Temp;Humidity;BMP_temperature;BMP_pressure;BME280_temperature;BME280_humidity;BME280_pressure;Samples;Min_cycle;Max_cycle;Signal;HPM_P1;HPM_P2
2023/07/09 00:01:57;;;;;;;;;;;20.10;99.90;;;;;;5064410;28;19959;-64
2023/07/09 00:04:28;;;;;;;;;;;20.00;99.90;;;;;;5068624;28;19928;-64
2023/07/09 00:07:01;;;;;;;;;;;20.00;99.90;;;;;;5064663;28;19955;-64
2023/07/09 00:09:28;;;;;;;;;;;19.90;99.90;;;;;;5061493;28;20325;-64
2023/07/09 00:12:00;;;;;;;;;;;19.80;99.90;;;;;;5060985;28;19957;-64
2023/07/09 00:14:32;;;;;;;;;;;19.80;99.90;;;;;;5067925;28;20019;-64
2023/07/09 00:17:07;;;;;;;;;;;19.70;99.90;;;;;;5062347;28;20381;-64
2023/07/09 00:19:39;;;;;;;;;;;19.70;99.90;;;;;;5060770;28;19982;-64
2023/07/09 00:22:18;;;;;;;;;;;19.70;99.90;;;;;;5065674;28;19940;-65
2023/07/09 00:24:51;;;;;;;;;;;19.70;99.90;;;;;;5064637;28;19928;-64
2023/07/09 00:27:25;;;;;;;;;;;19.80;99.90;;;;;;5047949;28;20019;-64
2023/07/09 00:29:57;;;;;;;;;;;19.80;99.90;;;;;;5060301;28;20297;-64
2023/07/09 00:32:29;;;;;;;;;;;19.70;99.90;;;;;;5046281;28;19932;-64
2023/07/09 00:35:04;;;;;;;;;;;19.60;99.90;;;;;;5062112;28;19934;-64
2023/07/09 00:37:36;;;;;;;;;;;19.60;99.90;;;;;;5066414;28;19966;-64
2023/07/09 00:40:13;;;;;;;;;;;19.50;99.90;;;;;;5067973;28;19925;-64
2023/07/09 00:42:46;;;;;;;;;;;19.40;99.90;;;;;;5066396;28;19924;-64
2023/07/09 00:45:27;;;;;;;;;;;19.40;99.90;;;;;;5061669;28;19929;-63
2023/07/09 00:48:06;;;;;;;;;;;19.40;99.90;;;;;;5059427;28;19932;-64
2023/07/09 00:50:52;;;;;;;;;;;19.50;99.90;;;;;;5065036;28;19932;-65
2023/07/09 00:53:29;;;;;;;;;;;19.50;99.90;;;;;;5067121;28;19931;-64
2023/07/09 00:56:06;;;;;;;;;;;19.30;99.90;;;;;;5062996;28;20015;-64
2023/07/09 00:58:38;;;;;;;;;;;19.30;99.90;;;;;;5065700;28;19936;-64
2023/07/09 01:01:11;;;;;;;;;;;19.20;99.90;;;;;;5064468;28;19931;-64
2023/07/09 01:03:57;;;;;;;;;;;19.00;99.90;;;;;;5065339;28;20021;-64
2023/07/09 01:06:35;;;;;;;;;;;18.90;99.90;;;;;;5063273;28;20000;-64
2023/07/09 01:09:07;;;;;;;;;;;19.00;99.90;;;;;;5066052;28;19951;-64
2023/07/09 01:11:39;;;;;;;;;;;19.00;99.90;;;;;;5066653;28;19924;-65
2023/07/09 01:14:16;;;;;;;;;;;19.10;99.90;;;;;;5078023;28;20616;-64
2023/07/09 01:16:56;;;;;;;;;;;19.10;99.90;;;;;;5065067;28;19928;-64
2023/07/09 01:19:30;;;;;;;;;;;19.10;99.90;;;;;;5064017;28;19978;-64
2023/07/09 01:22:01;;;;;;;;;;;19.10;99.90;;;;;;5065925;28;19929;-64
2023/07/09 01:24:52;;;;;;;;;;;19.00;99.90;;;;;;5065971;28;20023;-64
2023/07/09 01:27:26;;;;;;;;;;;19.00;99.90;;;;;;5066204;28;19928;-64
2023/07/09 01:29:59;;;;;;;;;;;19.00;99.90;;;;;;5066442;28;19924;-64
2023/07/09 01:32:31;;;;;;;;;;;18.90;99.90;;;;;;5062710;28;20525;-64
2023/07/09 01:35:06;;;;;;;;;;;18.90;99.90;;;;;;5062582;28;20404;-64
2023/07/09 01:37:34;;;;;;;;;;;18.80;99.90;;;;;;5064312;28;20561;-64
2023/07/09 01:40:09;;;;;;;;;;;18.80;99.90;;;;;;5061347;28;19978;-64
2023/07/09 01:42:41;;;;;;;;;;;18.80;99.90;;;;;;5065500;28;19931;-64
2023/07/09 01:45:13;;;;;;;;;;;18.70;99.90;;;;;;5064563;28;19925;-64
2023/07/09 01:47:45;;;;;;;;;;;18.70;99.90;;;;;;5065578;28;19979;-64
2023/07/09 01:50:12;;;;;;;;;;;18.70;99.90;;;;;;5063379;28;19924;-64
2023/07/09 01:52:44;;;;;;;;;;;18.70;99.90;;;;;;5064010;28;19929;-64
2023/07/09 01:55:16;;;;;;;;;;;18.70;99.90;;;;;;5062801;28;19930;-64
2023/07/09 01:57:50;;;;;;;;;;;18.70;99.90;;;;;;5080839;28;19932;-64
2023/07/09 02:00:22;;;;;;;;;;;18.70;99.90;;;;;;5066547;28;20019;-64
2023/07/09 02:02:54;;;;;;;;;;;18.70;99.90;;;;;;5068781;28;19932;-64
2023/07/09 02:05:26;;;;;;;;;;;18.60;99.90;;;;;;5065767;28;20332;-64
2023/07/09 02:07:59;;;;;;;;;;;18.50;99.90;;;;;;5068380;28;20633;-65
2023/07/09 02:10:31;;;;;;;;;;;18.50;99.90;;;;;;5068619;28;20031;-64
2023/07/09 02:13:02;;;;;;;;;;;18.40;99.90;;;;;;5067347;28;19963;-64
2023/07/09 02:15:36;;;;;;;;;;;18.50;99.90;;;;;;5067738;28;20396;-64
2023/07/09 02:18:03;;;;;;;;;;;18.50;99.90;;;;;;5068292;28;19932;-64
2023/07/09 02:20:30;;;;;;;;;;;18.50;99.90;;;;;;5068064;28;19947;-64
2023/07/09 02:23:02;;;;;;;;;;;18.60;99.90;;;;;;5067990;28;20388;-64
2023/07/09 02:25:33;;;;;;;;;;;18.60;99.90;;;;;;5068041;28;19928;-63
2023/07/09 02:28:05;;;;;;;;;;;18.50;99.90;;;;;;5064563;28;19928;-64
2023/07/09 02:30:37;;;;;;;;;;;18.40;99.90;;;;;;5064085;28;20337;-64
2023/07/09 02:33:08;;;;;;;;;;;18.40;99.90;;;;;;5066965;28;19925;-64
2023/07/09 02:35:40;;;;;;;;;;;18.40;99.90;;;;;;5064613;28;19930;-64
2023/07/09 02:38:12;;;;;;;;;;;18.40;99.90;;;;;;5065228;28;19928;-64
2023/07/09 02:40:43;;;;;;;;;;;18.40;99.90;;;;;;5062890;28;19924;-64
2023/07/09 02:43:15;;;;;;;;;;;18.50;99.90;;;;;;5065074;28;19925;-64
2023/07/09 02:45:47;;;;;;;;;;;18.40;99.90;;;;;;5045387;28;20019;-64
2023/07/09 02:48:14;;;;;;;;;;;18.30;99.90;;;;;;5068261;28;20036;-64
2023/07/09 02:50:45;;;;;;;;;;;18.30;99.90;;;;;;5048729;28;19924;-64
2023/07/09 02:53:17;;;;;;;;;;;18.30;99.90;;;;;;5062978;28;19924;-64
2023/07/09 02:55:49;;;;;;;;;;;18.20;99.90;;;;;;5067513;28;20011;-64
2023/07/09 02:58:21;;;;;;;;;;;18.30;99.90;;;;;;5066375;28;20041;-63
2023/07/09 03:00:52;;;;;;;;;;;18.20;99.90;;;;;;5062058;28;19935;-64
2023/07/09 03:03:24;;;;;;;;;;;18.10;99.90;;;;;;5057373;28;20011;-64
2023/07/09 03:05:56;;;;;;;;;;;18.10;99.90;;;;;;5068587;28;19928;-64
2023/07/09 03:08:28;;;;;;;;;;;18.10;99.90;;;;;;5065871;28;20020;-65
2023/07/09 03:11:07;;;;;;;;;;;18.10;99.90;;;;;;5065194;28;19938;-63
2023/07/09 03:13:34;;;;;;;;;;;18.10;99.90;;;;;;5063572;28;19929;-64
2023/07/09 03:16:06;;;;;;;;;;;18.00;99.90;;;;;;5066285;28;20324;-63
2023/07/09 03:18:38;;;;;;;;;;;17.90;99.90;;;;;;5064421;28;20048;-63
2023/07/09 03:21:10;;;;;;;;;;;17.90;99.90;;;;;;5066213;28;19925;-64
2023/07/09 03:23:41;;;;;;;;;;;17.80;99.90;;;;;;5064147;28;19976;-63
2023/07/09 03:26:13;;;;;;;;;;;17.80;99.90;;;;;;5051267;28;20015;-63
2023/07/09 03:28:45;;;;;;;;;;;17.80;99.90;;;;;;5063047;28;20300;-64
2023/07/09 03:31:16;;;;;;;;;;;17.70;99.90;;;;;;5062296;28;19925;-64
2023/07/09 03:33:49;;;;;;;;;;;17.60;99.90;;;;;;5065930;28;20445;-64
2023/07/09 03:36:21;;;;;;;;;;;17.60;99.90;;;;;;5064076;28;19933;-64
2023/07/09 03:38:52;;;;;;;;;;;17.60;99.90;;;;;;5066430;28;19964;-64
2023/07/09 03:41:19;;;;;;;;;;;17.60;99.90;;;;;;5069228;28;19929;-64
2023/07/09 03:43:46;;;;;;;;;;;17.60;99.90;;;;;;5067655;28;20036;-64
2023/07/09 03:46:17;;;;;;;;;;;17.70;99.90;;;;;;5067460;28;19928;-64
2023/07/09 03:48:50;;;;;;;;;;;17.70;99.90;;;;;;5067594;28;19935;-63
2023/07/09 03:51:22;;;;;;;;;;;17.70;99.90;;;;;;5067896;28;19925;-64
2023/07/09 03:53:53;;;;;;;;;;;17.70;99.90;;;;;;5067736;28;20321;-64
2023/07/09 03:56:25;;;;;;;;;;;17.60;99.90;;;;;;5067789;28;19931;-64
2023/07/09 03:58:57;;;;;;;;;;;17.70;99.90;;;;;;5066724;28;19970;-63
2023/07/09 04:01:29;;;;;;;;;;;17.60;99.90;;;;;;5067287;28;19947;-64
2023/07/09 04:03:55;;;;;;;;;;;17.60;99.90;;;;;;5066883;28;19929;-63
2023/07/09 04:06:27;;;;;;;;;;;17.60;99.90;;;;;;5066862;28;19924;-64
2023/07/09 04:08:59;;;;;;;;;;;17.50;99.90;;;;;;5064350;28;20326;-64
2023/07/09 04:11:30;;;;;;;;;;;17.50;99.90;;;;;;5066493;28;19928;-64
2023/07/09 04:13:57;;;;;;;;;;;17.50;99.90;;;;;;5066511;28;19948;-64
2023/07/09 04:16:29;;;;;;;;;;;17.50;99.90;;;;;;5063533;28;20424;-64
2023/07/09 04:18:56;;;;;;;;;;;17.50;99.90;;;;;;5068137;28;19950;-65
2023/07/09 04:21:27;;;;;;;;;;;17.50;99.90;;;;;;5066200;28;20506;-64
2023/07/09 04:23:59;;;;;;;;;;;17.50;99.90;;;;;;5063324;28;19925;-64
2023/07/09 04:26:27;;;;;;;;;;;17.60;99.90;;;;;;5065395;28;19929;-64
2023/07/09 04:28:59;;;;;;;;;;;17.60;99.90;;;;;;5064206;28;20019;-64
2023/07/09 04:31:31;;;;;;;;;;;17.60;99.90;;;;;;5065217;28;20055;-64
2023/07/09 04:34:03;;;;;;;;;;;17.60;99.90;;;;;;5064927;28;20016;-64
2023/07/09 04:36:35;;;;;;;;;;;17.60;99.90;;;;;;5067094;28;19929;-63
2023/07/09 04:39:07;;;;;;;;;;;17.60;99.90;;;;;;5064011;28;19931;-64
2023/07/09 04:41:38;;;;;;;;;;;17.60;99.90;;;;;;5067015;28;19928;-64
2023/07/09 04:44:10;;;;;;;;;;;17.60;99.90;;;;;;5066853;28;20007;-63
2023/07/09 04:46:42;;;;;;;;;;;17.70;99.90;;;;;;5067611;28;19934;-64
2023/07/09 04:49:13;;;;;;;;;;;17.80;99.90;;;;;;5065868;28;19932;-64
2023/07/09 04:51:45;;;;;;;;;;;17.80;99.90;;;;;;5065836;28;19947;-69
2023/07/09 04:54:17;;;;;;;;;;;17.90;99.90;;;;;;5065656;28;19932;-64
2023/07/09 04:56:49;;;;;;;;;;;18.00;99.90;;;;;;5064300;28;20030;-63
2023/07/09 04:59:20;;;;;;;;;;;18.00;99.90;;;;;;5062049;28;19925;-63
2023/07/09 05:01:52;;;;;;;;;;;18.00;99.90;;;;;;5065710;28;19933;-64
2023/07/09 05:04:24;;;;;;;;;;;18.00;99.90;;;;;;5061853;28;20011;-63
2023/07/09 05:06:56;;;;;;;;;;;18.00;99.90;;;;;;5059255;28;19925;-64
2023/07/09 05:09:28;;;;;;;;;;;18.10;99.90;;;;;;5063927;28;20380;-63
2023/07/09 05:12:00;;;;;;;;;;;18.10;99.90;;;;;;5062826;28;19924;-64
2023/07/09 05:14:32;;;;;;;;;;;18.20;99.90;;;;;;5062002;28;19928;-64
2023/07/09 05:17:04;;;;;;;;;;;18.20;99.90;;;;;;5065395;28;19925;-63
2023/07/09 05:19:36;;;;;;;;;;;18.20;99.90;;;;;;5066283;28;19932;-63
2023/07/09 05:22:07;;;;;;;;;;;18.30;99.90;;;;;;5061058;28;19935;-63
2023/07/09 05:24:39;;;;;;;;;;;18.30;99.90;;;;;;5060919;28;19929;-64
2023/07/09 05:27:11;;;;;;;;;;;18.30;99.90;;;;;;5065057;28;20393;-64
2023/07/09 05:29:42;;;;;;;;;;;18.40;99.90;;;;;;5062643;28;19932;-63
2023/07/09 05:32:14;;;;;;;;;;;18.40;99.90;;;;;;5067003;28;20024;-64
2023/07/09 05:34:41;;;;;;;;;;;18.40;99.90;;;;;;5064532;28;19925;-64
2023/07/09 05:37:13;;;;;;;;;;;18.50;99.90;;;;;;5065535;28;19929;-65
2023/07/09 05:39:45;;;;;;;;;;;18.60;99.90;;;;;;5062513;28;19931;-64
2023/07/09 05:42:17;;;;;;;;;;;18.60;99.90;;;;;;5067823;28;19929;-64
2023/07/09 05:44:49;;;;;;;;;;;18.70;99.90;;;;;;5066557;28;20015;-66
2023/07/09 05:47:20;;;;;;;;;;;18.80;99.90;;;;;;5063036;28;19928;-65
2023/07/09 05:49:52;;;;;;;;;;;18.80;99.90;;;;;;5065572;28;19951;-64
2023/07/09 05:52:24;;;;;;;;;;;18.90;99.90;;;;;;5053879;28;19931;-64
2023/07/09 05:54:56;;;;;;;;;;;18.90;99.90;;;;;;5066068;28;20002;-64
2023/07/09 05:57:28;;;;;;;;;;;19.00;99.90;;;;;;5064417;28;20012;-65
2023/07/09 06:00:00;;;;;;;;;;;19.00;99.90;;;;;;5069613;28;20042;-64
2023/07/09 06:02:39;;;;;;;;;;;19.10;99.90;;;;;;5066713;28;19928;-68
2023/07/09 06:05:11;;;;;;;;;;;19.10;99.90;;;;;;5063181;28;19929;-64
2023/07/09 06:07:43;;;;;;;;;;;19.20;99.90;;;;;;5066094;28;19932;-65
2023/07/09 06:10:15;;;;;;;;;;;19.30;99.90;;;;;;5068431;28;20314;-66
2023/07/09 06:12:48;;;;;;;;;;;19.30;99.90;;;;;;5067763;28;20364;-65
2023/07/09 06:15:20;;;;;;;;;;;19.40;99.90;;;;;;5062417;28;20372;-70
2023/07/09 06:17:52;;;;;;;;;;;19.50;99.90;;;;;;5065729;28;19986;-67
2023/07/09 06:20:24;;;;;;;;;;;19.60;99.90;;;;;;5066162;28;19929;-66
2023/07/09 06:22:56;;;;;;;;;;;19.60;99.90;;;;;;5066083;28;20062;-64
2023/07/09 06:25:27;;;;;;;;;;;19.70;99.90;;;;;;5066318;28;19925;-64
2023/07/09 06:27:59;;;;;;;;;;;19.80;99.90;;;;;;5065070;28;20651;-67
2023/07/09 06:30:31;;;;;;;;;;;19.90;99.90;;;;;;5069915;28;19924;-65
2023/07/09 06:33:02;;;;;;;;;;;20.00;99.90;;;;;;5065316;28;19929;-66
2023/07/09 06:35:34;;;;;;;;;;;20.10;99.90;;;;;;5065018;28;20393;-64
2023/07/09 06:38:01;;;;;;;;;;;20.20;99.90;;;;;;5066211;28;19932;-65
2023/07/09 06:40:28;;;;;;;;;;;20.30;99.90;;;;;;5062712;28;19924;-64
2023/07/09 06:42:55;;;;;;;;;;;20.40;99.90;;;;;;5065444;28;19924;-65
2023/07/09 06:45:27;;;;;;;;;;;20.50;99.90;;;;;;5065265;28;20311;-64
2023/07/09 06:47:59;;;;;;;;;;;20.70;99.90;;;;;;5063374;28;19978;-64
2023/07/09 06:50:34;;;;;;;;;;;20.80;99.90;;;;;;5060551;28;19929;-66
2023/07/09 06:53:06;;;;;;;;;;;20.90;99.90;;;;;;5064924;28;20013;-64
2023/07/09 06:55:38;;;;;;;;;;;21.00;99.90;;;;;;5069547;28;19925;-66
2023/07/09 06:58:10;;;;;;;;;;;21.10;99.90;;;;;;5067246;28;19932;-65
2023/07/09 07:00:41;;;;;;;;;;;21.20;99.90;;;;;;5062479;28;20458;-63
2023/07/09 07:03:13;;;;;;;;;;;21.40;99.90;;;;;;5067569;28;19932;-64
2023/07/09 07:05:45;;;;;;;;;;;21.50;99.90;;;;;;5067792;28;20412;-64
2023/07/09 07:08:18;;;;;;;;;;;21.70;99.90;;;;;;5061414;28;19936;-68
2023/07/09 07:10:56;;;;;;;;;;;21.70;99.90;;;;;;5064694;28;19931;-64
2023/07/09 07:13:31;;;;;;;;;;;21.90;99.90;;;;;;5065781;28;19934;-63
2023/07/09 07:15:58;;;;;;;;;;;22.00;99.90;;;;;;5063287;28;19959;-63
2023/07/09 07:18:30;;;;;;;;;;;22.10;99.90;;;;;;5068906;28;20311;-63
2023/07/09 07:21:02;;;;;;;;;;;22.20;99.90;;;;;;5066310;28;19924;-64
2023/07/09 07:23:33;;;;;;;;;;;22.30;99.90;;;;;;5067303;28;19932;-64
2023/07/09 07:26:05;;;;;;;;;;;22.50;99.90;;;;;;5065236;28;20363;-64
2023/07/09 07:28:37;;;;;;;;;;;22.60;99.90;;;;;;5069533;28;20404;-63
2023/07/09 07:31:09;;;;;;;;;;;22.80;99.90;;;;;;5066772;28;20403;-63
2023/07/09 07:33:41;;;;;;;;;;;22.90;99.90;;;;;;5062851;28;19925;-65
2023/07/09 07:36:08;;;;;;;;;;;23.00;99.90;;;;;;5063987;28;19931;-65
2023/07/09 07:38:40;;;;;;;;;;;23.20;99.90;;;;;;5064845;28;20404;-64
2023/07/09 07:41:12;;;;;;;;;;;23.30;99.90;;;;;;5064504;28;19940;-66
2023/07/09 07:43:43;;;;;;;;;;;23.40;99.90;;;;;;5065412;28;19940;-68
2023/07/09 07:46:15;;;;;;;;;;;23.60;99.90;;;;;;5065995;28;20025;-64
2023/07/09 07:48:47;;;;;;;;;;;23.70;99.90;;;;;;5065471;28;20423;-64
2023/07/09 07:51:20;;;;;;;;;;;23.90;99.90;;;;;;5061710;28;19929;-63
2023/07/09 07:53:52;;;;;;;;;;;24.00;99.90;;;;;;5065997;28;20392;-64
2023/07/09 07:56:25;;;;;;;;;;;24.10;99.90;;;;;;5067312;28;20021;-64
2023/07/09 07:58:57;;;;;;;;;;;24.20;99.90;;;;;;5061867;28;19928;-64
2023/07/09 08:01:29;;;;;;;;;;;24.40;99.90;;;;;;5063394;28;19935;-63
2023/07/09 08:04:05;;;;;;;;;;;24.50;99.90;;;;;;5048734;28;19925;-66
2023/07/09 08:06:36;;;;;;;;;;;24.70;99.90;;;;;;5064178;28;19929;-63
2023/07/09 08:09:08;;;;;;;;;;;24.80;99.90;;;;;;5064288;28;19924;-64
2023/07/09 08:11:40;;;;;;;;;;;25.00;99.90;;;;;;5065748;28;19929;-64
2023/07/09 08:14:11;;;;;;;;;;;25.20;99.90;;;;;;5064571;28;19968;-64
2023/07/09 08:16:43;;;;;;;;;;;25.30;99.90;;;;;;5064295;28;20324;-64
2023/07/09 08:19:18;;;;;;;;;;;25.40;99.90;;;;;;5064613;28;19974;-64
2023/07/09 08:21:49;;;;;;;;;;;25.50;99.90;;;;;;5065102;28;19924;-63
2023/07/09 08:24:21;;;;;;;;;;;25.60;99.90;;;;;;5063476;28;19924;-63
2023/07/09 08:26:52;;;;;;;;;;;25.80;99.90;;;;;;5066417;28;19925;-64
2023/07/09 08:29:24;;;;;;;;;;;26.00;99.90;;;;;;5065534;28;19936;-64
2023/07/09 08:31:56;;;;;;;;;;;26.10;99.90;;;;;;5076386;28;19932;-64
2023/07/09 08:34:28;;;;;;;;;;;26.20;99.90;;;;;;5064226;28;19925;-65
2023/07/09 08:37:00;;;;;;;;;;;26.30;99.90;;;;;;5067505;28;20389;-64
2023/07/09 08:39:32;;;;;;;;;;;26.50;99.90;;;;;;5067614;28;19929;-64
2023/07/09 08:42:01;;;;;;;;;;;26.70;99.90;;;;;;5067229;28;19974;-64
2023/07/09 08:44:36;;;;;;;;;;;26.80;99.90;;;;;;5064410;28;19928;-68
2023/07/09 08:47:07;;;;;;;;;;;27.00;99.90;;;;;;5067578;28;20411;-64
2023/07/09 08:49:52;;;;;;;;;;;27.10;99.90;;;;;;5066422;28;19994;-65
2023/07/09 08:52:28;;;;;;;;;;;27.20;99.90;;;;;;5065606;28;19978;-64
2023/07/09 08:55:20;;;;;;;;;;;27.40;99.90;;;;;;5065327;28;20019;-64
2023/07/09 08:57:55;;;;;;;;;;;27.50;99.90;;;;;;5046852;28;20372;-64
2023/07/09 09:00:27;;;;;;;;;;;27.60;99.90;;;;;;5048830;28;19925;-64
2023/07/09 09:03:21;;;;;;;;;;;27.80;99.90;;;;;;5065684;28;19928;-64
2023/07/09 09:05:53;;;;;;;;;;;27.90;99.90;;;;;;5057561;28;19933;-66
2023/07/09 09:08:23;;;;;;;;;;;28.00;99.90;;;;;;5064407;28;20472;-65
2023/07/09 09:10:58;;;;;;;;;;;28.10;99.90;;;;;;5070698;28;20392;-64
2023/07/09 09:13:30;;;;;;;;;;;28.20;99.90;;;;;;5068239;28;19964;-64
2023/07/09 09:16:04;;;;;;;;;;;28.30;99.90;;;;;;5064206;28;19928;-64
2023/07/09 09:18:40;;;;;;;;;;;28.40;99.90;;;;;;5065836;28;20035;-63
2023/07/09 09:21:15;;;;;;;;;;;28.50;99.90;;;;;;5068441;28;21012;-65
2023/07/09 09:23:53;;;;;;;;;;;28.60;99.70;;;;;;5068565;28;20028;-66
2023/07/09 09:26:28;;;;;;;;;;;28.70;98.50;;;;;;5062228;28;19924;-65
2023/07/09 09:29:00;;;;;;;;;;;28.70;98.50;;;;;;5064402;28;19925;-64
2023/07/09 09:31:33;;;;;;;;;;;28.70;97.70;;;;;;5066592;28;19931;-64
2023/07/09 09:34:05;;;;;;;;;;;28.80;97.00;;;;;;5064919;28;19931;-64
2023/07/09 09:36:37;;;;;;;;;;;29.00;97.00;;;;;;5062197;28;20035;-69
2023/07/09 09:39:09;;;;;;;;;;;29.10;97.20;;;;;;5069554;28;20059;-64
2023/07/09 09:41:43;;;;;;;;;;;29.20;96.80;;;;;;5064062;28;19936;-64
2023/07/09 09:44:26;;;;;;;;;;;29.20;95.40;;;;;;5069506;28;19929;-65
2023/07/09 09:46:58;;;;;;;;;;;29.40;95.60;;;;;;5062323;28;20035;-66
2023/07/09 09:49:38;;;;;;;;;;;29.30;95.30;;;;;;5067507;28;19930;-64
2023/07/09 09:52:20;;;;;;;;;;;29.30;95.60;;;;;;5064024;28;19989;-64
2023/07/09 09:54:54;;;;;;;;;;;29.40;95.00;;;;;;5066192;28;19933;-65
2023/07/09 09:57:27;;;;;;;;;;;29.50;94.40;;;;;;5066697;28;19929;-64
2023/07/09 09:59:59;;;;;;;;;;;29.60;94.40;;;;;;5066684;28;19996;-66
2023/07/09 10:02:38;;;;;;;;;;;29.80;93.80;;;;;;5064923;28;19925;-65
2023/07/09 10:05:16;;;;;;;;;;;30.00;93.10;;;;;;5067923;28;19929;-64
2023/07/09 10:08:09;;;;;;;;;;;30.00;92.20;;;;;;5067582;28;19931;-64
2023/07/09 10:10:43;;;;;;;;;;;30.10;91.00;;;;;;5067629;28;19924;-64
2023/07/09 10:13:41;;;;;;;;;;;30.20;90.90;;;;;;5067587;28;19928;-64
2023/07/09 10:16:19;;;;;;;;;;;30.30;91.70;;;;;;5068650;28;19932;-63
2023/07/09 10:18:58;;;;;;;;;;;30.60;90.20;;;;;;5070891;28;20022;-64
2023/07/09 10:21:36;;;;;;;;;;;30.60;86.50;;;;;;5068791;28;19983;-64
2023/07/09 10:24:27;;;;;;;;;;;30.60;88.40;;;;;;5069279;28;19931;-72
2023/07/09 10:27:03;;;;;;;;;;;30.70;85.50;;;;;;5068899;28;19935;-63
2023/07/09 10:29:39;;;;;;;;;;;30.80;84.30;;;;;;5071466;28;19924;-63
2023/07/09 10:32:10;;;;;;;;;;;30.90;83.20;;;;;;5067470;28;19925;-65
2023/07/09 10:35:01;;;;;;;;;;;30.80;81.30;;;;;;5069261;28;20029;-63
2023/07/09 10:37:41;;;;;;;;;;;30.80;78.30;;;;;;5068359;28;19982;-65
2023/07/09 10:40:17;;;;;;;;;;;30.80;78.30;;;;;;5068775;28;20426;-64
2023/07/09 10:42:51;;;;;;;;;;;30.90;81.20;;;;;;5066124;28;19925;-65
2023/07/09 10:45:38;;;;;;;;;;;31.10;81.30;;;;;;5066141;28;20411;-65
2023/07/09 10:48:18;;;;;;;;;;;31.20;77.80;;;;;;5070423;28;19947;-64
2023/07/09 10:50:52;;;;;;;;;;;31.30;76.40;;;;;;5067017;28;19929;-65
2023/07/09 10:53:39;;;;;;;;;;;31.40;77.50;;;;;;5067093;28;19967;-64
2023/07/09 10:56:16;;;;;;;;;;;31.60;76.00;;;;;;5066906;28;20011;-66
2023/07/09 10:59:06;;;;;;;;;;;31.60;73.20;;;;;;5068102;28;20020;-65
2023/07/09 11:01:41;;;;;;;;;;;31.70;73.50;;;;;;5064378;28;20371;-65
2023/07/09 11:04:33;;;;;;;;;;;31.80;72.60;;;;;;5064776;28;19928;-64
2023/07/09 11:07:07;;;;;;;;;;;31.80;66.90;;;;;;5065669;28;19936;-64
2023/07/09 11:09:41;;;;;;;;;;;31.90;70.10;;;;;;5064942;28;20286;-65
2023/07/09 11:12:15;;;;;;;;;;;32.00;68.30;;;;;;5063124;28;19928;-66
2023/07/09 11:14:52;;;;;;;;;;;32.00;66.70;;;;;;5066514;28;20404;-65
2023/07/09 11:17:23;;;;;;;;;;;32.00;68.70;;;;;;5068911;28;19986;-65
2023/07/09 11:19:58;;;;;;;;;;;32.10;68.00;;;;;;5068216;28;19932;-65
2023/07/09 11:22:40;;;;;;;;;;;32.30;68.80;;;;;;5068125;28;19925;-65
2023/07/09 11:25:13;;;;;;;;;;;32.30;66.00;;;;;;5067964;28;20246;-65
2023/07/09 11:27:49;;;;;;;;;;;32.40;68.70;;;;;;5066693;28;20420;-66
2023/07/09 11:30:26;;;;;;;;;;;32.60;66.90;;;;;;5063110;28;19936;-65
2023/07/09 11:32:58;;;;;;;;;;;32.80;65.30;;;;;;5064971;28;19999;-65
2023/07/09 11:35:50;;;;;;;;;;;32.90;65.60;;;;;;5066219;28;19928;-65
2023/07/09 11:38:24;;;;;;;;;;;32.90;65.00;;;;;;5052022;28;20296;-65
2023/07/09 11:40:55;;;;;;;;;;;33.00;62.90;;;;;;5066223;28;19929;-66
2023/07/09 11:43:29;;;;;;;;;;;32.90;63.20;;;;;;5067024;28;20009;-65
2023/07/09 11:46:27;;;;;;;;;;;32.90;62.40;;;;;;5063964;28;19935;-65
2023/07/09 11:49:01;;;;;;;;;;;32.90;62.80;;;;;;5062617;28;19929;-65
2023/07/09 11:51:45;;;;;;;;;;;33.00;64.20;;;;;;5066567;28;20028;-65
2023/07/09 11:54:17;;;;;;;;;;;33.20;65.70;;;;;;5062280;28;20301;-66
2023/07/09 11:56:54;;;;;;;;;;;33.40;61.20;;;;;;5063350;28;20312;-67
2023/07/09 11:59:26;;;;;;;;;;;33.30;60.00;;;;;;5064650;28;19932;-65
2023/07/09 12:02:00;;;;;;;;;;;33.20;60.60;;;;;;5060996;28;19929;-65
2023/07/09 12:04:34;;;;;;;;;;;33.10;59.10;;;;;;5066359;28;20032;-69
2023/07/09 12:07:06;;;;;;;;;;;33.10;59.50;;;;;;5060522;28;19929;-65
2023/07/09 12:09:41;;;;;;;;;;;33.20;59.60;;;;;;5048609;28;19935;-65
2023/07/09 12:12:17;;;;;;;;;;;33.30;61.20;;;;;;5062380;28;19931;-66
2023/07/09 12:14:49;;;;;;;;;;;33.50;61.10;;;;;;5063966;28;20378;-65
2023/07/09 12:17:30;;;;;;;;;;;33.70;60.20;;;;;;5066264;28;19928;-66
2023/07/09 12:20:04;;;;;;;;;;;33.70;58.20;;;;;;5063841;28;19925;-65
2023/07/09 12:22:35;;;;;;;;;;;33.70;58.70;;;;;;5066179;28;19935;-65
2023/07/09 12:25:17;;;;;;;;;;;33.80;59.90;;;;;;5059595;28;19997;-65
2023/07/09 12:27:49;;;;;;;;;;;33.90;58.00;;;;;;5064391;28;19929;-65
2023/07/09 12:30:21;;;;;;;;;;;33.80;57.70;;;;;;5065074;28;19951;-66
2023/07/09 12:32:52;;;;;;;;;;;33.90;58.10;;;;;;5065893;28;19939;-66
2023/07/09 12:35:25;;;;;;;;;;;34.00;58.30;;;;;;5061657;28;19928;-65
2023/07/09 12:37:58;;;;;;;;;;;34.20;57.50;;;;;;5062865;28;19931;-65
2023/07/09 12:40:30;;;;;;;;;;;34.30;57.80;;;;;;5064729;28;19932;-65
2023/07/09 12:43:02;;;;;;;;;;;34.50;58.00;;;;;;5058328;28;19924;-65
2023/07/09 12:45:34;;;;;;;;;;;34.70;56.10;;;;;;5061333;28;21379;-67
2023/07/09 12:48:07;;;;;;;;;;;34.70;56.90;;;;;;5060078;28;20393;-65
2023/07/09 12:50:39;;;;;;;;;;;34.70;55.90;;;;;;5061133;28;19969;-65
2023/07/09 12:53:13;;;;;;;;;;;34.90;56.20;;;;;;5064227;28;20568;-65
2023/07/09 12:55:45;;;;;;;;;;;35.10;55.40;;;;;;5059101;28;20684;-65
2023/07/09 12:58:31;;;;;;;;;;;35.00;54.60;;;;;;5064222;28;20404;-65
2023/07/09 13:01:08;;;;;;;;;;;35.10;55.20;;;;;;5067048;28;20012;-65
2023/07/09 13:03:35;;;;;;;;;;;34.80;54.00;;;;;;5056528;28;19932;-65
2023/07/09 13:06:24;;;;;;;;;;;34.50;53.30;;;;;;5063939;28;19932;-65
2023/07/09 13:08:57;;;;;;;;;;;34.50;54.20;;;;;;5063565;28;19925;-65
2023/07/09 13:11:25;;;;;;;;;;;34.60;54.00;;;;;;5064235;28;20010;-65
2023/07/09 13:13:58;;;;;;;;;;;34.70;52.80;;;;;;5061984;28;20400;-65
2023/07/09 13:16:30;;;;;;;;;;;34.70;54.20;;;;;;5061274;28;19925;-65
2023/07/09 13:19:01;;;;;;;;;;;34.50;54.90;;;;;;5063556;28;20494;-65
2023/07/09 13:21:33;;;;;;;;;;;34.40;54.10;;;;;;5061162;28;20452;-65
2023/07/09 13:24:24;;;;;;;;;;;34.50;53.50;;;;;;5060356;28;19932;-65
2023/07/09 13:26:59;;;;;;;;;;;34.70;54.80;;;;;;5067077;28;20523;-65
2023/07/09 13:29:31;;;;;;;;;;;35.00;53.00;;;;;;5066925;28;19964;-65
2023/07/09 13:32:07;;;;;;;;;;;35.10;52.80;;;;;;5064526;28;19935;-65
2023/07/09 13:34:39;;;;;;;;;;;35.30;51.90;;;;;;5061839;28;20324;-65
2023/07/09 13:37:13;;;;;;;;;;;35.40;51.60;;;;;;5062022;28;21621;-65
2023/07/09 13:39:45;;;;;;;;;;;35.50;51.00;;;;;;5065492;28;19947;-65
2023/07/09 13:42:17;;;;;;;;;;;35.60;51.00;;;;;;5064203;28;19978;-65
2023/07/09 13:44:49;;;;;;;;;;;35.30;50.50;;;;;;5059014;28;19925;-65
2023/07/09 13:47:21;;;;;;;;;;;35.00;50.90;;;;;;5059175;28;19932;-65
2023/07/09 13:49:53;;;;;;;;;;;35.00;50.10;;;;;;5063649;28;19940;-65
2023/07/09 13:52:25;;;;;;;;;;;35.00;50.70;;;;;;5060045;28;19928;-65
2023/07/09 13:54:57;;;;;;;;;;;35.20;49.80;;;;;;5067581;28;19925;-65
2023/07/09 13:57:29;;;;;;;;;;;35.40;50.30;;;;;;5069128;28;20335;-65
2023/07/09 14:00:01;;;;;;;;;;;35.70;50.90;;;;;;5066754;28;19974;-65
2023/07/09 14:02:34;;;;;;;;;;;36.00;50.70;;;;;;5068008;28;19933;-65
2023/07/09 14:05:07;;;;;;;;;;;36.20;51.10;;;;;;5067144;28;19925;-65
2023/07/09 14:07:40;;;;;;;;;;;36.40;49.40;;;;;;5065992;28;19932;-65
2023/07/09 14:10:13;;;;;;;;;;;36.40;48.70;;;;;;5066165;28;19935;-65
2023/07/09 14:12:46;;;;;;;;;;;36.30;49.00;;;;;;5066146;28;20384;-65
2023/07/09 14:15:19;;;;;;;;;;;36.20;47.70;;;;;;5066787;28;20026;-65
2023/07/09 14:17:51;;;;;;;;;;;36.10;47.70;;;;;;5069407;28;19976;-65
2023/07/09 14:20:23;;;;;;;;;;;36.10;47.60;;;;;;5069015;28;19925;-65
2023/07/09 14:22:55;;;;;;;;;;;36.10;48.70;;;;;;5068006;28;19925;-65
2023/07/09 14:25:28;;;;;;;;;;;36.10;47.70;;;;;;5063026;28;19924;-65
2023/07/09 14:27:55;;;;;;;;;;;35.90;47.00;;;;;;5066832;28;19994;-65
2023/07/09 14:30:28;;;;;;;;;;;36.00;47.20;;;;;;5068683;28;20466;-65
2023/07/09 14:32:59;;;;;;;;;;;36.10;48.30;;;;;;5065969;28;19936;-65
2023/07/09 14:35:31;;;;;;;;;;;36.20;47.10;;;;;;5063365;28;19929;-65
2023/07/09 14:38:06;;;;;;;;;;;36.40;47.70;;;;;;5068180;28;19931;-65
2023/07/09 14:40:37;;;;;;;;;;;36.60;48.30;;;;;;5068802;28;20613;-65
2023/07/09 14:43:10;;;;;;;;;;;36.60;46.20;;;;;;5065404;28;19936;-65
2023/07/09 14:45:42;;;;;;;;;;;36.70;46.70;;;;;;5067558;28;19935;-65
2023/07/09 14:48:19;;;;;;;;;;;36.80;47.70;;;;;;5068570;28;19924;-65
2023/07/09 14:50:51;;;;;;;;;;;36.80;48.10;;;;;;5064354;28;19977;-65
2023/07/09 14:53:26;;;;;;;;;;;36.90;46.40;;;;;;5067727;28;19925;-65